createdAt,value
2023-04-10T00:00:39.335Z,99.68
2023-04-10T00:01:40.938Z,100.00
2023-04-10T00:02:42.857Z,100.00
2023-04-10T00:03:44.774Z,100.00
2023-04-10T00:04:46.839Z,99.75
2023-04-10T00:05:48.434Z,99.56
2023-04-10T00:06:50.047Z,99.32
2023-04-10T00:07:51.687Z,99.55
2023-04-10T00:08:53.212Z,99.79
2023-04-10T00:09:55.033Z,98.91
2023-04-10T00:10:57.100Z,98.82
2023-04-10T00:11:59.485Z,98.98
2023-04-10T00:13:03.437Z,99.00
2023-04-10T00:14:04.971Z,100.00
2023-04-10T00:15:07.194Z,99.56
2023-04-10T00:16:08.899Z,100.00
2023-04-10T00:17:10.709Z,100.00
2023-04-10T00:18:12.739Z,100.00
2023-04-10T00:19:14.349Z,99.97
2023-04-10T00:20:16.299Z,100.00
2023-04-10T00:21:18.049Z,100.00
2023-04-10T00:22:19.578Z,100.00
2023-04-10T00:23:21.327Z,100.00
2023-04-10T00:24:22.876Z,100.00
2023-04-10T00:25:24.465Z,100.00
2023-04-10T00:26:26.903Z,100.00
2023-04-10T00:27:28.448Z,100.00
2023-04-10T00:28:30.280Z,100.00
2023-04-10T00:29:31.825Z,100.00
2023-04-10T00:30:33.414Z,100.00
2023-04-10T00:31:35.030Z,100.00
2023-04-10T00:32:36.716Z,100.00
2023-04-10T00:33:38.309Z,99.66
2023-04-10T00:34:39.854Z,99.57
2023-04-10T00:35:41.431Z,99.20
2023-04-10T00:36:43.048Z,99.16
2023-04-10T00:37:44.638Z,99.73
2023-04-10T00:38:46.613Z,100.00
2023-04-10T00:39:48.184Z,100.00
2023-04-10T00:40:49.829Z,100.00
2023-04-10T00:41:51.325Z,100.00
2023-04-10T00:42:53.144Z,100.00
2023-04-10T00:43:57.921Z,100.00
2023-04-10T00:45:00.288Z,100.00
2023-04-10T00:46:01.899Z,100.00
2023-04-10T00:47:07.612Z,100.00
2023-04-10T00:48:09.210Z,100.00
2023-04-10T00:49:10.886Z,100.00
2023-04-10T00:50:12.710Z,100.00
2023-04-10T00:51:14.533Z,100.00
2023-04-10T00:52:16.616Z,100.00
2023-04-10T00:53:18.219Z,100.00
2023-04-10T00:54:20.251Z,100.00
2023-04-10T00:55:21.864Z,100.00
2023-04-10T00:56:24.946Z,100.00
2023-04-10T00:57:27.115Z,100.00
2023-04-10T00:58:28.747Z,100.00
2023-04-10T00:59:31.590Z,100.00
2023-04-10T01:00:33.167Z,100.00
2023-04-10T01:01:34.784Z,100.00
2023-04-10T01:02:36.619Z,100.00
2023-04-10T01:03:40.137Z,100.00
2023-04-10T01:04:42.219Z,100.00
2023-04-10T01:05:52.315Z,99.72
2023-04-10T01:06:59.305Z,98.68
2023-04-10T01:08:13.538Z,98.74
2023-04-10T01:09:32.796Z,97.83
2023-04-10T01:10:42.862Z,97.56
2023-04-10T01:11:50.597Z,96.99
2023-04-10T01:12:56.145Z,96.97
2023-04-10T01:14:19.390Z,97.67
2023-04-10T01:15:23.659Z,97.55
2023-04-10T01:16:33.720Z,98.11
2023-04-10T01:17:54.851Z,98.54
2023-04-10T01:19:31.266Z,98.93
2023-04-10T01:20:37.562Z,99.75
2023-04-10T01:21:41.548Z,100.00
2023-04-10T01:23:04.550Z,100.00
2023-04-10T01:24:06.249Z,100.00
2023-04-10T01:25:10.823Z,100.00
2023-04-10T01:26:17.346Z,100.00
2023-04-10T01:27:44.282Z,100.00
2023-04-10T01:28:56.942Z,100.00
2023-04-10T01:30:01.539Z,100.00
2023-04-10T01:31:06.611Z,100.00
2023-04-10T01:32:18.852Z,100.00
2023-04-10T01:33:22.750Z,100.00
2023-04-10T01:34:32.561Z,100.00
2023-04-10T01:35:35.860Z,100.00
2023-04-10T01:36:45.628Z,100.00
2023-04-10T01:37:50.641Z,100.00
2023-04-10T01:38:54.926Z,100.00
2023-04-10T01:40:02.856Z,100.00
2023-04-10T01:41:06.301Z,100.00
2023-04-10T01:42:10.758Z,100.00
2023-04-10T01:43:13.139Z,100.00
2023-04-10T01:44:16.062Z,100.00
2023-04-10T01:45:22.004Z,100.00
2023-04-10T01:46:25.189Z,100.00
2023-04-10T01:47:28.015Z,100.00
2023-04-10T01:48:30.212Z,100.00
2023-04-10T01:49:33.006Z,100.00
2023-04-10T01:50:36.014Z,100.00
2023-04-10T01:51:37.777Z,100.00
2023-04-10T01:52:40.614Z,100.00
2023-04-10T01:53:44.709Z,100.00
2023-04-10T01:54:48.527Z,100.00
2023-04-10T01:55:52.325Z,100.00
2023-04-10T01:56:54.016Z,100.00
2023-04-10T01:57:56.508Z,100.00
2023-04-10T01:58:58.468Z,100.00
2023-04-10T02:00:00.069Z,100.00
2023-04-10T02:01:01.944Z,100.00
2023-04-10T02:02:04.852Z,100.00
2023-04-10T02:03:06.796Z,100.00
2023-04-10T02:04:08.673Z,100.00
2023-04-10T02:05:11.033Z,100.00
2023-04-10T02:06:27.975Z,100.00
2023-04-10T02:07:42.736Z,100.00
2023-04-10T02:08:55.595Z,100.00
2023-04-10T02:10:07.412Z,100.00
2023-04-10T02:11:15.492Z,100.00
2023-04-10T02:12:22.722Z,100.00
2023-04-10T02:13:27.837Z,100.00
2023-04-10T02:14:32.315Z,100.00
2023-04-10T02:15:35.689Z,100.00
2023-04-10T02:16:39.156Z,100.00
2023-04-10T02:17:40.952Z,100.00
2023-04-10T02:18:43.590Z,100.00
2023-04-10T02:19:48.387Z,100.00
2023-04-10T02:20:50.550Z,100.00
2023-04-10T02:21:52.297Z,100.00
2023-04-10T02:22:54.408Z,100.00
2023-04-10T02:23:59.620Z,100.00
2023-04-10T02:25:04.640Z,100.00
2023-04-10T02:26:09.986Z,100.00
2023-04-10T02:27:11.564Z,100.00
2023-04-10T02:28:13.111Z,100.00
2023-04-10T02:29:15.080Z,100.00
2023-04-10T02:30:16.656Z,100.00
2023-04-10T02:31:18.344Z,100.00
2023-04-10T02:32:20.113Z,100.00
2023-04-10T02:33:21.686Z,100.00
2023-04-10T02:34:23.226Z,100.00
2023-04-10T02:35:24.967Z,100.00
2023-04-10T02:36:26.484Z,100.00
2023-04-10T02:37:27.978Z,100.00
2023-04-10T02:38:29.512Z,100.00
2023-04-10T02:39:31.026Z,100.00
2023-04-10T02:40:32.710Z,100.00
2023-04-10T02:41:34.248Z,100.00
2023-04-10T02:42:35.883Z,100.00
2023-04-10T02:43:37.453Z,100.00
2023-04-10T02:44:39.676Z,100.00
2023-04-10T02:45:41.900Z,100.00
2023-04-10T02:46:43.590Z,98.99
2023-04-10T02:47:45.221Z,97.65
2023-04-10T02:48:47.654Z,97.33
2023-04-10T02:49:49.170Z,97.32
2023-04-10T02:50:56.579Z,96.81
2023-04-10T02:51:58.188Z,96.62
2023-04-10T02:52:59.780Z,96.41
2023-04-10T02:54:01.283Z,96.05
2023-04-10T02:55:02.835Z,95.57
2023-04-10T02:56:06.659Z,95.57
2023-04-10T02:57:08.403Z,95.55
2023-04-10T02:58:09.943Z,94.42
2023-04-10T02:59:13.344Z,94.77
2023-04-10T03:00:15.673Z,95.46
2023-04-10T03:01:17.313Z,95.22
2023-04-10T03:02:18.958Z,95.28
2023-04-10T03:03:20.777Z,95.61
2023-04-10T03:04:22.697Z,96.25
2023-04-10T03:05:24.303Z,96.54
2023-04-10T03:06:28.657Z,97.13
2023-04-10T03:07:30.219Z,97.52
2023-04-10T03:08:31.785Z,98.16
2023-04-10T03:09:33.294Z,98.19
2023-04-10T03:10:34.858Z,98.10
2023-04-10T03:11:36.441Z,98.06
2023-04-10T03:12:38.022Z,98.47
2023-04-10T03:13:39.554Z,97.50
2023-04-10T03:14:41.467Z,98.12
2023-04-10T03:15:43.587Z,97.95
2023-04-10T03:16:45.347Z,98.92
2023-04-10T03:17:47.513Z,99.06
2023-04-10T03:18:49.088Z,99.65
2023-04-10T03:19:50.692Z,99.12
2023-04-10T03:20:52.253Z,99.04
2023-04-10T03:21:53.889Z,98.58
2023-04-10T03:22:55.722Z,99.19
2023-04-10T03:23:57.347Z,98.71
2023-04-10T03:24:59.064Z,99.46
2023-04-10T03:26:00.793Z,99.74
2023-04-10T03:27:02.352Z,99.94
2023-04-10T03:28:03.973Z,100.00
2023-04-10T03:29:05.484Z,100.00
2023-04-10T03:30:07.863Z,100.00
2023-04-10T03:31:10.721Z,99.61
2023-04-10T03:32:12.334Z,98.80
2023-04-10T03:33:14.106Z,98.63
2023-04-10T03:34:15.712Z,98.09
2023-04-10T03:35:17.260Z,96.73
2023-04-10T03:36:18.940Z,96.37
2023-04-10T03:37:20.642Z,96.65
2023-04-10T03:38:22.148Z,96.27
2023-04-10T03:39:24.738Z,96.07
2023-04-10T03:40:26.355Z,95.74
2023-04-10T03:41:27.920Z,95.06
2023-04-10T03:42:29.619Z,94.74
2023-04-10T03:43:31.571Z,94.10
2023-04-10T03:44:34.260Z,93.79
2023-04-10T03:45:35.884Z,94.55
2023-04-10T03:46:37.463Z,94.31
2023-04-10T03:47:39.075Z,94.20
2023-04-10T03:48:41.341Z,93.17
2023-04-10T03:49:42.899Z,93.85
2023-04-10T03:50:44.582Z,93.19
2023-04-10T03:51:46.317Z,92.67
2023-04-10T03:52:49.795Z,93.03
2023-04-10T03:53:51.539Z,92.85
2023-04-10T03:54:53.354Z,92.57
2023-04-10T03:55:54.994Z,92.10
2023-04-10T03:56:57.189Z,92.55
2023-04-10T03:57:58.715Z,92.02
2023-04-10T03:59:00.251Z,92.44
2023-04-10T04:00:02.798Z,92.14
2023-04-10T04:01:05.452Z,92.13
2023-04-10T04:02:07.762Z,91.85
2023-04-10T04:03:09.776Z,91.75
2023-04-10T04:04:11.583Z,92.03
2023-04-10T04:05:13.409Z,92.01
2023-04-10T04:06:14.963Z,92.35
2023-04-10T04:07:16.515Z,92.39
2023-04-10T04:08:18.283Z,93.14
2023-04-10T04:09:19.840Z,93.74
2023-04-10T04:10:21.372Z,93.97
2023-04-10T04:11:22.940Z,94.82
2023-04-10T04:12:24.470Z,95.75
2023-04-10T04:13:26.006Z,96.71
2023-04-10T04:14:27.571Z,97.26
2023-04-10T04:15:29.117Z,96.88
2023-04-10T04:16:30.768Z,96.77
2023-04-10T04:17:32.586Z,95.97
2023-04-10T04:18:34.159Z,95.76
2023-04-10T04:19:35.847Z,95.31
2023-04-10T04:20:37.382Z,95.85
2023-04-10T04:21:38.922Z,96.69
2023-04-10T04:22:41.545Z,96.77
2023-04-10T04:23:43.138Z,97.21
2023-04-10T04:24:44.723Z,97.79
2023-04-10T04:25:46.272Z,97.81
2023-04-10T04:26:47.808Z,97.82
2023-04-10T04:27:49.339Z,98.13
2023-04-10T04:28:51.131Z,98.72
2023-04-10T04:29:52.673Z,99.08
2023-04-10T04:30:54.176Z,99.68
2023-04-10T04:31:55.885Z,99.53
2023-04-10T04:32:57.448Z,99.33
2023-04-10T04:33:59.995Z,99.39
2023-04-10T04:35:01.574Z,98.44
2023-04-10T04:36:03.248Z,98.47
2023-04-10T04:37:05.609Z,98.08
2023-04-10T04:38:07.157Z,98.55
2023-04-10T04:39:08.683Z,98.51
2023-04-10T04:40:10.800Z,98.63
2023-04-10T04:41:12.438Z,99.07
2023-04-10T04:42:13.996Z,99.11
2023-04-10T04:43:15.733Z,98.97
2023-04-10T04:44:19.683Z,98.34
2023-04-10T04:45:21.957Z,98.10
2023-04-10T04:46:23.597Z,97.39
2023-04-10T04:47:25.339Z,96.78
2023-04-10T04:48:26.999Z,96.09
2023-04-10T04:49:28.573Z,96.53
2023-04-10T04:50:30.300Z,96.54
2023-04-10T04:51:31.850Z,97.02
2023-04-10T04:52:35.371Z,96.70
2023-04-10T04:53:37.025Z,96.94
2023-04-10T04:54:38.560Z,97.26
2023-04-10T04:55:40.970Z,97.03
2023-04-10T04:56:42.520Z,97.68
2023-04-10T04:57:44.054Z,97.41
2023-04-10T04:58:45.692Z,97.60
2023-04-10T04:59:47.248Z,97.21
2023-04-10T05:00:48.789Z,97.14
2023-04-10T05:01:50.452Z,97.10
2023-04-10T05:02:53.389Z,96.62
2023-04-10T05:03:56.162Z,96.11
2023-04-10T05:04:58.249Z,96.13
2023-04-10T05:05:59.877Z,96.10
2023-04-10T05:07:01.585Z,96.21
2023-04-10T05:08:03.269Z,96.02
2023-04-10T05:09:04.856Z,96.26
2023-04-10T05:10:07.012Z,97.01
2023-04-10T05:11:11.004Z,97.05
2023-04-10T05:12:12.724Z,97.05
2023-04-10T05:13:15.763Z,98.02
2023-04-10T05:14:17.357Z,98.03
2023-04-10T05:15:18.986Z,97.77
2023-04-10T05:16:20.636Z,97.69
2023-04-10T05:17:22.226Z,97.69
2023-04-10T05:18:23.982Z,97.99
2023-04-10T05:19:25.713Z,98.33
2023-04-10T05:20:27.340Z,97.79
2023-04-10T05:21:28.917Z,97.67
2023-04-10T05:22:31.139Z,96.53
2023-04-10T05:23:32.669Z,96.49
2023-04-10T05:24:34.410Z,96.29
2023-04-10T05:25:36.403Z,96.46
2023-04-10T05:26:38.114Z,97.16
2023-04-10T05:27:39.742Z,97.32
2023-04-10T05:28:41.292Z,97.62
2023-04-10T05:29:42.816Z,98.48
2023-04-10T05:30:44.930Z,98.62
2023-04-10T05:31:46.749Z,98.97
2023-04-10T05:32:48.372Z,99.27
2023-04-10T05:33:49.948Z,99.31
2023-04-10T05:34:51.550Z,99.59
2023-04-10T05:35:53.583Z,98.61
2023-04-10T05:36:57.509Z,98.92
2023-04-10T05:38:00.855Z,98.41
2023-04-10T05:39:02.458Z,98.82
2023-04-10T05:40:05.041Z,98.03
2023-04-10T05:41:06.666Z,98.08
2023-04-10T05:42:08.266Z,98.92
2023-04-10T05:43:09.838Z,98.52
2023-04-10T05:44:11.432Z,97.87
2023-04-10T05:45:14.876Z,97.59
2023-04-10T05:46:16.535Z,97.62
2023-04-10T05:47:18.179Z,97.48
2023-04-10T05:48:19.735Z,97.35
2023-04-10T05:49:21.377Z,97.27
2023-04-10T05:50:23.181Z,96.76
2023-04-10T05:51:24.799Z,96.35
2023-04-10T05:52:26.383Z,97.05
2023-04-10T05:53:33.637Z,96.83
2023-04-10T05:54:36.255Z,97.29
2023-04-10T05:55:38.473Z,97.73
2023-04-10T05:56:40.051Z,98.42
2023-04-10T05:57:41.564Z,97.24
2023-04-10T05:58:43.127Z,97.95
2023-04-10T05:59:44.652Z,98.28
2023-04-10T06:00:46.741Z,98.86
2023-04-10T06:01:48.326Z,97.99
2023-04-10T06:02:49.986Z,98.70
2023-04-10T06:04:22.245Z,98.55
2023-04-10T06:05:23.958Z,98.24
2023-04-10T06:06:26.352Z,98.68
2023-04-10T06:07:28.778Z,97.17
2023-04-10T06:08:30.760Z,97.58
2023-04-10T06:09:32.398Z,95.38
2023-04-10T06:10:33.980Z,93.38
2023-04-10T06:11:35.584Z,92.01
2023-04-10T06:12:37.203Z,91.46
2023-04-10T06:13:38.852Z,91.51
2023-04-10T06:14:40.519Z,91.30
2023-04-10T06:15:42.170Z,92.26
2023-04-10T06:16:43.813Z,92.94
2023-04-10T06:17:45.358Z,92.68
2023-04-10T06:18:47.813Z,92.63
2023-04-10T06:19:49.456Z,92.11
2023-04-10T06:20:51.058Z,90.30
2023-04-10T06:21:54.510Z,89.56
2023-04-10T06:22:56.973Z,89.30
2023-04-10T06:23:58.548Z,88.73
2023-04-10T06:25:00.379Z,87.61
2023-04-10T06:26:03.468Z,86.80
2023-04-10T06:27:05.038Z,85.69
2023-04-10T06:28:06.637Z,86.46
2023-04-10T06:29:08.289Z,87.43
2023-04-10T06:30:10.489Z,87.70
2023-04-10T06:31:12.564Z,87.40
2023-04-10T06:32:14.226Z,88.23
2023-04-10T06:33:16.374Z,87.26
2023-04-10T06:34:18.183Z,86.29
2023-04-10T06:35:19.780Z,86.14
2023-04-10T06:36:21.696Z,85.90
2023-04-10T06:37:33.197Z,86.72
2023-04-10T06:38:37.741Z,86.18
2023-04-10T06:39:39.440Z,87.78
2023-04-10T06:40:41.632Z,90.54
2023-04-10T06:41:43.188Z,93.04
2023-04-10T06:42:44.771Z,94.00
2023-04-10T06:43:46.363Z,94.43
2023-04-10T06:44:47.881Z,95.01
2023-04-10T06:45:49.458Z,94.05
2023-04-10T06:46:51.005Z,91.37
2023-04-10T06:47:52.826Z,90.78
2023-04-10T06:48:54.592Z,91.52
2023-04-10T06:49:56.242Z,90.52
2023-04-10T06:51:00.492Z,88.37
2023-04-10T06:52:02.068Z,88.54
2023-04-10T06:53:03.594Z,87.63
2023-04-10T06:54:05.508Z,87.30
2023-04-10T06:55:07.671Z,86.17
2023-04-10T06:56:09.556Z,86.05
2023-04-10T06:57:11.141Z,84.57
2023-04-10T06:58:12.735Z,83.38
2023-04-10T06:59:14.300Z,81.98
2023-04-10T07:00:16.275Z,82.00
2023-04-10T07:01:17.968Z,82.70
2023-04-10T07:02:19.684Z,85.68
2023-04-10T07:03:21.469Z,85.65
2023-04-10T07:04:22.998Z,85.93
2023-04-10T07:05:24.608Z,85.62
2023-04-10T07:06:27.077Z,87.56
2023-04-10T07:07:29.282Z,88.02
2023-04-10T07:08:30.852Z,90.10
2023-04-10T07:09:32.388Z,91.08
2023-04-10T07:10:33.903Z,92.19
2023-04-10T07:11:35.514Z,91.85
2023-04-10T07:12:37.016Z,91.46
2023-04-10T07:13:40.203Z,89.23
2023-04-10T07:14:42.343Z,90.46
2023-04-10T07:15:43.936Z,88.03
2023-04-10T07:16:45.596Z,85.97
2023-04-10T07:17:48.376Z,86.73
2023-04-10T07:18:49.934Z,86.86
2023-04-10T07:19:51.480Z,87.78
2023-04-10T07:20:54.051Z,88.38
2023-04-10T07:21:55.690Z,86.20
2023-04-10T07:22:57.221Z,84.72
2023-04-10T07:23:58.729Z,83.18
2023-04-10T07:25:00.538Z,83.99
2023-04-10T07:26:02.098Z,84.53
2023-04-10T07:27:05.900Z,85.49
2023-04-10T07:28:07.479Z,84.58
2023-04-10T07:29:09.434Z,87.01
2023-04-10T07:30:13.561Z,88.12
2023-04-10T07:31:15.688Z,87.01
2023-04-10T07:32:17.868Z,88.09
2023-04-10T07:33:19.713Z,86.46
2023-04-10T07:34:21.449Z,86.10
2023-04-10T07:35:23.041Z,85.17
2023-04-10T07:36:24.631Z,82.58
2023-04-10T07:37:26.531Z,84.10
2023-04-10T07:38:28.202Z,84.98
2023-04-10T07:39:29.777Z,84.30
2023-04-10T07:40:31.348Z,82.68
2023-04-10T07:41:33.018Z,81.69
2023-04-10T07:42:34.600Z,77.84
2023-04-10T07:43:36.401Z,78.08
2023-04-10T07:44:37.991Z,78.93
2023-04-10T07:45:39.560Z,77.88
2023-04-10T07:46:41.774Z,77.30
2023-04-10T07:47:43.360Z,77.12
2023-04-10T07:48:44.902Z,77.84
2023-04-10T07:49:46.446Z,75.18
2023-04-10T07:50:48.210Z,73.75
2023-04-10T07:51:49.729Z,73.20
2023-04-10T07:52:51.331Z,74.40
2023-04-10T07:53:53.049Z,73.58
2023-04-10T07:54:54.663Z,77.87
2023-04-10T07:55:56.513Z,77.13
2023-04-10T07:56:58.029Z,76.18
2023-04-10T07:58:00.246Z,75.85
2023-04-10T07:59:02.905Z,78.56
2023-04-10T08:00:04.911Z,76.49
2023-04-10T08:01:06.972Z,73.79
2023-04-10T08:02:08.618Z,76.16
2023-04-10T08:03:11.759Z,80.00
2023-04-10T08:04:13.628Z,78.89
2023-04-10T08:05:15.746Z,76.78
2023-04-10T08:06:17.415Z,72.11
2023-04-10T08:07:22.116Z,72.81
2023-04-10T08:08:23.680Z,73.47
2023-04-10T08:09:25.394Z,73.51
2023-04-10T08:10:26.905Z,75.07
2023-04-10T08:11:35.201Z,74.46
2023-04-10T08:12:38.189Z,74.07
2023-04-10T08:13:39.739Z,75.63
2023-04-10T08:14:41.404Z,72.10
2023-04-10T08:15:43.050Z,73.04
2023-04-10T08:16:44.652Z,73.65
2023-04-10T08:17:46.325Z,74.16
2023-04-10T08:18:47.920Z,75.84
2023-04-10T08:19:49.474Z,72.47
2023-04-10T08:20:51.005Z,71.37
2023-04-10T08:21:52.560Z,70.32
2023-04-10T08:22:55.261Z,75.45
2023-04-10T08:24:00.403Z,69.24
2023-04-10T08:25:01.941Z,70.84
2023-04-10T08:26:03.655Z,71.03
2023-04-10T08:27:05.252Z,71.98
2023-04-10T08:28:06.890Z,70.09
2023-04-10T08:29:08.511Z,69.75
2023-04-10T08:30:10.522Z,67.15
2023-04-10T08:31:12.119Z,65.05
2023-04-10T08:32:13.746Z,65.57
2023-04-10T08:33:15.592Z,63.38
2023-04-10T08:34:17.197Z,62.73
2023-04-10T08:35:18.888Z,63.28
2023-04-10T08:36:20.733Z,64.60
2023-04-10T08:37:22.649Z,65.36
2023-04-10T08:38:27.494Z,66.82
2023-04-10T08:39:29.056Z,60.27
2023-04-10T08:40:30.664Z,60.34
2023-04-10T08:41:32.271Z,60.89
2023-04-10T08:42:34.623Z,61.13
2023-04-10T08:43:37.288Z,59.46
2023-04-10T08:44:39.883Z,59.85
2023-04-10T08:45:41.765Z,58.52
2023-04-10T08:46:45.289Z,59.03
2023-04-10T08:47:50.126Z,61.00
2023-04-10T08:49:17.277Z,61.13
2023-04-10T08:50:20.279Z,63.34
2023-04-10T08:51:26.691Z,58.29
2023-04-10T08:52:31.560Z,59.05
2023-04-10T08:53:36.940Z,59.19
2023-04-10T08:54:41.527Z,58.80
2023-04-10T08:55:44.447Z,59.97
2023-04-10T08:56:51.217Z,59.70
2023-04-10T08:58:00.431Z,59.93
2023-04-10T08:59:03.652Z,57.28
2023-04-10T09:00:19.846Z,56.32
2023-04-10T09:01:21.774Z,58.11
2023-04-10T09:02:24.933Z,58.09
2023-04-10T09:03:27.794Z,57.44
2023-04-10T09:04:29.715Z,58.80
2023-04-10T09:05:31.613Z,59.89
2023-04-10T09:06:33.183Z,59.14
2023-04-10T09:07:34.702Z,58.69
2023-04-10T09:08:36.459Z,59.21
2023-04-10T09:09:38.038Z,60.37
2023-04-10T09:10:39.647Z,57.63
2023-04-10T09:11:56.513Z,58.09
2023-04-10T09:12:58.068Z,58.43
2023-04-10T09:13:59.575Z,58.35
2023-04-10T09:15:01.047Z,56.80
2023-04-10T09:16:02.956Z,58.21
2023-04-10T09:17:21.636Z,59.47
2023-04-10T09:18:40.260Z,59.01
2023-04-10T09:19:42.413Z,61.17
2023-04-10T09:20:44.046Z,60.26
2023-04-10T09:21:50.770Z,63.05
2023-04-10T09:22:52.931Z,61.38
2023-04-10T09:24:01.284Z,60.33
2023-04-10T09:25:04.254Z,60.78
2023-04-10T09:26:29.328Z,61.47
2023-04-10T09:27:35.996Z,61.52
2023-04-10T09:28:56.584Z,58.54
2023-04-10T09:29:58.730Z,59.22
2023-04-10T09:31:00.340Z,59.20
2023-04-10T09:32:01.996Z,58.84
2023-04-10T09:33:20.746Z,61.84
2023-04-10T09:34:23.382Z,61.54
2023-04-10T09:35:36.836Z,60.44
2023-04-10T09:36:38.638Z,60.99
2023-04-10T09:37:42.363Z,59.80
2023-04-10T09:38:51.576Z,63.15
2023-04-10T09:39:53.280Z,61.19
2023-04-10T09:41:07.051Z,60.33
2023-04-10T09:42:09.668Z,59.77
2023-04-10T09:43:19.202Z,59.83
2023-04-10T09:44:41.510Z,57.47
2023-04-10T09:45:51.668Z,57.55
2023-04-10T09:46:54.039Z,60.99
2023-04-10T09:48:04.166Z,59.73
2023-04-10T09:49:07.437Z,57.52
2023-04-10T09:50:09.079Z,59.26
2023-04-10T09:51:29.759Z,60.53
2023-04-10T09:52:34.685Z,61.71
2023-04-10T09:53:49.682Z,59.67
2023-04-10T09:54:52.210Z,59.10
2023-04-10T09:55:55.075Z,60.46
2023-04-10T09:56:57.604Z,59.99
2023-04-10T09:58:00.347Z,56.88
2023-04-10T09:59:04.685Z,55.58
2023-04-10T10:00:09.568Z,56.60
2023-04-10T10:01:12.731Z,57.73
2023-04-10T10:02:16.449Z,56.50
2023-04-10T10:03:21.155Z,59.13
2023-04-10T10:04:23.702Z,58.80
2023-04-10T10:05:30.505Z,55.41
2023-04-10T10:06:33.213Z,55.67
2023-04-10T10:07:35.879Z,57.23
2023-04-10T10:08:37.631Z,55.35
2023-04-10T10:09:39.675Z,56.21
2023-04-10T10:11:03.356Z,54.19
2023-04-10T10:12:06.873Z,55.88
2023-04-10T10:13:10.413Z,53.93
2023-04-10T10:14:17.597Z,52.38
2023-04-10T10:15:46.840Z,51.86
2023-04-10T10:16:57.123Z,52.20
2023-04-10T10:18:17.912Z,53.42
2023-04-10T10:19:24.760Z,51.94
2023-04-10T10:20:27.512Z,50.31
2023-04-10T10:21:30.743Z,50.24
2023-04-10T10:22:32.783Z,50.98
2023-04-10T10:23:35.048Z,51.37
2023-04-10T10:24:40.112Z,51.50
2023-04-10T10:25:42.786Z,52.72
2023-04-10T10:26:45.349Z,53.08
2023-04-10T10:27:49.645Z,54.12
2023-04-10T10:28:55.154Z,53.92
2023-04-10T10:30:00.950Z,53.80
2023-04-10T10:31:04.856Z,51.98
2023-04-10T10:32:08.360Z,53.75
2023-04-10T10:33:11.086Z,52.30
2023-04-10T10:34:13.562Z,52.00
2023-04-10T10:35:17.122Z,52.89
2023-04-10T10:36:20.458Z,51.34
2023-04-10T10:37:22.078Z,53.13
2023-04-10T10:38:23.764Z,54.66
2023-04-10T10:39:34.272Z,52.51
2023-04-10T10:40:49.260Z,51.09
2023-04-10T10:42:15.651Z,50.40
2023-04-10T10:43:35.499Z,51.62
2023-04-10T10:44:53.862Z,52.29
2023-04-10T10:46:04.787Z,49.42
2023-04-10T10:47:06.348Z,50.41
2023-04-10T10:48:08.167Z,48.57
2023-04-10T10:49:09.797Z,49.09
2023-04-10T10:50:11.432Z,48.47
2023-04-10T10:51:13.044Z,48.65
2023-04-10T10:52:14.661Z,49.72
2023-04-10T10:53:37.137Z,50.87
2023-04-10T10:54:47.202Z,49.27
2023-04-10T10:55:55.250Z,49.74
2023-04-10T10:56:56.853Z,50.20
2023-04-10T10:58:03.656Z,49.44
2023-04-10T10:59:05.357Z,49.53
2023-04-10T11:00:07.646Z,48.50
2023-04-10T11:01:10.558Z,48.51
2023-04-10T11:02:17.669Z,49.49
2023-04-10T11:03:19.484Z,49.79
2023-04-10T11:04:51.330Z,49.84
2023-04-10T11:05:58.718Z,49.53
2023-04-10T11:07:00.311Z,49.75
2023-04-10T11:08:02.034Z,51.12
2023-04-10T11:09:03.622Z,49.98
2023-04-10T11:10:05.631Z,49.13
2023-04-10T11:11:08.076Z,47.94
2023-04-10T11:12:09.617Z,48.46
2023-04-10T11:13:18.426Z,46.33
2023-04-10T11:14:20.367Z,47.05
2023-04-10T11:15:25.936Z,50.14
2023-04-10T11:16:31.460Z,50.73
2023-04-10T11:17:54.361Z,49.54
2023-04-10T11:19:14.246Z,48.76
2023-04-10T11:20:18.474Z,49.78
2023-04-10T11:21:22.417Z,48.94
2023-04-10T11:22:23.940Z,48.61
2023-04-10T11:23:25.497Z,46.31
2023-04-10T11:24:27.116Z,45.49
2023-04-10T11:25:51.968Z,46.41
2023-04-10T11:26:53.565Z,46.53
2023-04-10T11:27:55.167Z,47.01
2023-04-10T11:28:56.954Z,47.87
2023-04-10T11:29:59.412Z,48.84
2023-04-10T11:31:19.707Z,49.91
2023-04-10T11:32:21.457Z,50.20
2023-04-10T11:33:23.065Z,48.88
2023-04-10T11:34:24.851Z,48.06
2023-04-10T11:35:28.370Z,46.69
2023-04-10T11:36:31.197Z,46.96
2023-04-10T11:37:32.774Z,46.00
2023-04-10T11:38:34.621Z,45.91
2023-04-10T11:39:36.583Z,46.51
2023-04-10T11:40:54.469Z,46.54
2023-04-10T11:41:59.300Z,48.60
2023-04-10T11:43:14.952Z,49.88
2023-04-10T11:44:31.670Z,48.23
2023-04-10T11:45:33.245Z,48.44
2023-04-10T11:46:39.750Z,48.73
2023-04-10T11:47:41.653Z,48.55
2023-04-10T11:48:43.232Z,48.66
2023-04-10T11:49:55.746Z,47.84
2023-04-10T11:50:57.755Z,47.71
2023-04-10T11:51:59.278Z,46.99
2023-04-10T11:53:00.844Z,47.56
2023-04-10T11:54:20.312Z,44.98
2023-04-10T11:55:39.062Z,44.34
2023-04-10T11:56:42.501Z,43.47
2023-04-10T11:57:45.469Z,43.91
2023-04-10T11:58:49.958Z,44.86
2023-04-10T11:59:51.849Z,43.54
2023-04-10T12:01:01.291Z,43.60
2023-04-10T12:02:15.931Z,42.81
2023-04-10T12:03:17.875Z,44.01
2023-04-10T12:04:21.521Z,44.10
2023-04-10T12:05:23.196Z,44.85
2023-04-10T12:06:24.931Z,43.40
2023-04-10T12:07:30.298Z,43.28
2023-04-10T12:08:41.668Z,42.79
2023-04-10T12:09:43.565Z,43.43
2023-04-10T12:10:47.006Z,43.24
2023-04-10T12:12:04.168Z,44.27
2023-04-10T12:13:06.658Z,42.17
2023-04-10T12:14:08.259Z,42.67
2023-04-10T12:15:28.965Z,41.79
2023-04-10T12:16:33.087Z,42.27
2023-04-10T12:17:34.712Z,43.07
2023-04-10T12:18:37.379Z,42.98
2023-04-10T12:19:39.734Z,42.40
2023-04-10T12:20:41.628Z,42.91
2023-04-10T12:21:44.053Z,42.82
2023-04-10T12:22:46.896Z,44.12
2023-04-10T12:23:48.487Z,43.84
2023-04-10T12:24:51.842Z,42.78
2023-04-10T12:26:06.724Z,42.07
2023-04-10T12:27:29.421Z,41.74
2023-04-10T12:28:30.995Z,42.24
2023-04-10T12:29:32.672Z,45.01
2023-04-10T12:30:34.257Z,42.79
2023-04-10T12:31:37.237Z,43.16
2023-04-10T12:32:39.719Z,42.02
2023-04-10T12:33:47.387Z,41.02
2023-04-10T12:34:57.891Z,41.44
2023-04-10T12:36:00.024Z,41.08
2023-04-10T12:37:01.652Z,41.42
2023-04-10T12:38:03.420Z,41.99
2023-04-10T12:39:05.696Z,41.78
2023-04-10T12:40:08.222Z,44.17
2023-04-10T12:41:11.403Z,45.10
2023-04-10T12:42:22.606Z,46.65
2023-04-10T12:43:44.793Z,45.37
2023-04-10T12:44:56.170Z,45.32
2023-04-10T12:45:58.025Z,46.83
2023-04-10T12:47:02.492Z,46.50
2023-04-10T12:48:04.207Z,45.31
2023-04-10T12:49:18.859Z,45.76
2023-04-10T12:50:24.304Z,44.45
2023-04-10T12:51:45.830Z,45.29
2023-04-10T12:53:03.470Z,45.74
2023-04-10T12:54:05.007Z,42.78
2023-04-10T12:55:15.667Z,42.36
2023-04-10T12:56:18.310Z,44.07
2023-04-10T12:57:28.890Z,43.31
2023-04-10T12:58:31.689Z,42.45
2023-04-10T12:59:33.687Z,42.67
2023-04-10T13:00:35.645Z,45.75
2023-04-10T13:01:40.590Z,44.42
2023-04-10T13:02:42.871Z,45.25
2023-04-10T13:03:46.703Z,43.69
2023-04-10T13:04:48.405Z,44.56
2023-04-10T13:05:52.070Z,45.54
2023-04-10T13:06:53.749Z,44.88
2023-04-10T13:07:55.294Z,44.95
2023-04-10T13:08:57.173Z,45.06
2023-04-10T13:09:59.756Z,44.94
2023-04-10T13:11:03.539Z,45.19
2023-04-10T13:12:06.878Z,45.29
2023-04-10T13:13:08.399Z,45.16
2023-04-10T13:14:11.115Z,43.33
2023-04-10T13:15:12.626Z,43.15
2023-04-10T13:16:14.217Z,44.15
2023-04-10T13:17:16.155Z,42.81
2023-04-10T13:18:17.878Z,43.77
2023-04-10T13:19:19.396Z,45.27
2023-04-10T13:20:22.330Z,44.67
2023-04-10T13:21:26.957Z,45.63
2023-04-10T13:22:28.510Z,45.85
2023-04-10T13:23:30.298Z,44.74
2023-04-10T13:24:31.811Z,45.00
2023-04-10T13:25:36.438Z,44.09
2023-04-10T13:26:37.972Z,44.27
2023-04-10T13:27:39.493Z,43.57
2023-04-10T13:28:41.008Z,43.23
2023-04-10T13:29:43.325Z,43.64
2023-04-10T13:30:45.296Z,42.47
2023-04-10T13:31:46.917Z,43.33
2023-04-10T13:32:48.636Z,43.82
2023-04-10T13:33:50.345Z,43.63
2023-04-10T13:34:52.384Z,43.64
2023-04-10T13:35:53.988Z,42.83
2023-04-10T13:36:55.710Z,42.97
2023-04-10T13:37:57.277Z,43.14